createdAt,value
2024-04-22T00:01:18.641Z,2.35
2024-04-22T00:06:20.529Z,2.08
2024-04-22T00:11:22.585Z,2.10
2024-04-22T00:16:24.655Z,2.60
2024-04-22T00:21:26.802Z,2.30
2024-04-22T00:26:28.746Z,2.33
2024-04-22T00:31:31.279Z,2.53
2024-04-22T00:36:33.491Z,2.42
2024-04-22T00:41:36.589Z,2.42
2024-04-22T00:46:39.067Z,3.20
2024-04-22T00:51:41.196Z,2.85
2024-04-22T00:56:43.601Z,2.97
2024-04-22T01:01:46.676Z,2.60
2024-04-22T01:06:48.654Z,2.92
2024-04-22T01:11:50.732Z,2.42
2024-04-22T01:16:56.875Z,2.70
2024-04-22T01:21:58.919Z,2.60
2024-04-22T01:27:05.148Z,2.60
2024-04-22T01:32:07.803Z,2.47
2024-04-22T01:37:09.971Z,2.25
2024-04-22T01:42:11.983Z,2.33
2024-04-22T01:47:14.112Z,2.30
2024-04-22T01:52:16.115Z,2.42
2024-04-22T01:57:18.078Z,2.38
2024-04-22T02:02:19.966Z,2.38
2024-04-22T02:07:22.699Z,2.80
2024-04-22T02:12:27.577Z,2.60
2024-04-22T02:17:29.800Z,2.58
2024-04-22T02:22:32.003Z,2.88
2024-04-22T02:27:33.935Z,2.53
2024-04-22T02:32:36.190Z,2.50
2024-04-22T02:37:38.344Z,2.40
2024-04-22T02:42:40.475Z,2.63
2024-04-22T02:47:42.837Z,2.80
2024-04-22T02:52:44.745Z,3.00
2024-04-22T02:57:46.618Z,2.47
2024-04-22T03:02:48.527Z,2.90
2024-04-22T03:07:51.838Z,2.55
2024-04-22T03:12:53.760Z,3.10
2024-04-22T03:17:55.628Z,2.58
2024-04-22T03:22:57.831Z,2.45
2024-04-22T03:28:00.030Z,2.83
2024-04-22T03:33:02.291Z,2.65
2024-04-22T03:38:04.313Z,2.67
2024-04-22T03:43:06.504Z,2.55
2024-04-22T03:48:27.500Z,3.22
2024-04-22T03:53:29.657Z,3.15
2024-04-22T03:58:31.544Z,2.78
2024-04-22T04:03:33.613Z,2.80
2024-04-22T04:08:35.645Z,2.85
2024-04-22T04:13:38.097Z,2.47
2024-04-22T04:18:40.558Z,2.65
2024-04-22T04:23:42.679Z,2.80
2024-04-22T04:28:49.223Z,2.47
2024-04-22T04:33:51.385Z,3.20
2024-04-22T04:38:53.412Z,2.90
2024-04-22T04:43:55.477Z,3.03
2024-04-22T04:48:58.660Z,3.20
2024-04-22T04:54:00.640Z,2.90
2024-04-22T04:59:02.653Z,3.03
2024-04-22T05:04:05.138Z,3.00
2024-04-22T05:09:07.240Z,2.92
2024-04-22T05:14:09.205Z,3.35
2024-04-22T05:19:11.423Z,2.60
2024-04-22T05:24:13.819Z,2.80
2024-04-22T05:29:15.994Z,3.10
2024-04-22T05:34:36.727Z,3.10
2024-04-22T05:39:38.852Z,3.05
2024-04-22T05:44:40.787Z,3.08
2024-04-22T05:49:43.044Z,3.13
2024-04-22T05:54:45.106Z,2.35
2024-04-22T05:59:46.907Z,2.20
2024-04-22T06:04:49.048Z,2.17
2024-04-22T06:09:51.021Z,2.53
2024-04-22T06:14:53.008Z,3.20
2024-04-22T06:19:55.117Z,4.43
2024-04-22T06:24:57.299Z,3.83
2024-04-22T06:29:59.307Z,4.10
2024-04-22T06:35:01.176Z,4.78
2024-04-22T06:40:03.143Z,3.92
2024-04-22T06:45:05.325Z,3.95
2024-04-22T06:50:07.482Z,2.67
2024-04-22T06:55:10.048Z,4.03
2024-04-22T07:00:12.751Z,3.03
2024-04-22T07:05:14.709Z,2.80
2024-04-22T07:10:16.833Z,2.72
2024-04-22T07:15:20.452Z,2.08
2024-04-22T07:20:22.410Z,2.65
2024-04-22T07:25:24.775Z,2.20
2024-04-22T07:30:26.935Z,2.60
2024-04-22T07:35:29.323Z,2.83
2024-04-22T07:40:32.642Z,2.08
2024-04-22T07:45:34.565Z,2.53
2024-04-22T07:50:36.628Z,1.90
2024-04-22T07:55:38.954Z,2.60
2024-04-22T08:00:41.439Z,2.83
2024-04-22T08:05:43.703Z,2.10
2024-04-22T08:10:46.207Z,2.40
2024-04-22T08:15:49.096Z,1.95
2024-04-22T08:20:51.015Z,2.38
2024-04-22T08:25:54.244Z,2.70
2024-04-22T08:31:10.673Z,2.30
2024-04-22T08:41:20.301Z,2.75
2024-04-22T08:46:22.312Z,2.70
2024-04-22T08:51:24.729Z,2.90
2024-04-22T08:56:30.208Z,2.90
2024-04-22T09:01:32.763Z,2.83
2024-04-22T09:06:34.994Z,2.75
2024-04-22T09:11:58.771Z,2.20
2024-04-22T09:16:59.034Z,2.00
2024-04-22T09:22:04.188Z,1.88
2024-04-22T09:27:07.131Z,2.67
2024-04-22T09:32:15.973Z,2.35
2024-04-22T09:37:18.305Z,2.40
2024-04-22T09:42:21.195Z,2.45
2024-04-22T09:47:24.148Z,2.33
2024-04-22T09:52:27.927Z,1.85
2024-04-22T09:57:32.693Z,1.70
2024-04-22T10:02:35.086Z,1.58
2024-04-22T10:07:38.694Z,1.75
2024-04-22T10:12:41.220Z,2.28
2024-04-22T10:17:47.584Z,1.98
2024-04-22T10:22:51.362Z,2.03
2024-04-22T10:27:53.474Z,2.13
2024-04-22T10:32:55.416Z,2.13
2024-04-22T10:37:58.476Z,2.38
2024-04-22T10:43:00.822Z,2.40
2024-04-22T10:48:11.720Z,3.10
2024-04-22T10:53:20.332Z,2.47
2024-04-22T10:58:24.352Z,1.88
2024-04-22T11:03:27.490Z,1.90
2024-04-22T11:08:30.395Z,2.10
2024-04-22T11:13:34.134Z,1.92
2024-04-22T11:18:37.208Z,1.48
2024-04-22T11:23:39.731Z,1.70
2024-04-22T11:28:41.846Z,1.23
2024-04-22T11:33:44.026Z,1.60
2024-04-22T11:38:46.375Z,1.08
2024-04-22T11:43:48.539Z,1.40
2024-04-22T11:48:50.992Z,1.20
2024-04-22T11:53:54.616Z,1.90
2024-04-22T11:58:57.185Z,1.02
2024-04-22T12:04:00.520Z,1.55
2024-04-22T12:09:05.838Z,1.25
2024-04-22T12:14:09.552Z,1.83
2024-04-22T12:19:11.921Z,2.00
2024-04-22T12:24:14.183Z,1.40
2024-04-22T12:29:16.334Z,2.10
2024-04-22T12:34:18.442Z,1.65
2024-04-22T12:39:20.546Z,1.75
2024-04-22T12:44:22.707Z,1.67
2024-04-22T12:49:43.280Z,2.33
2024-04-22T12:54:45.447Z,1.60
2024-04-22T12:59:48.663Z,1.48
2024-04-22T13:04:50.632Z,1.73
2024-04-22T13:09:53.361Z,1.92
2024-04-22T13:14:55.577Z,1.70
2024-04-22T13:19:57.709Z,1.40
2024-04-22T13:25:02.470Z,2.03
2024-04-22T13:30:10.719Z,1.73
2024-04-22T13:35:12.696Z,1.70
2024-04-22T13:40:14.712Z,1.88
2024-04-22T13:45:16.992Z,2.08
2024-04-22T13:50:19.033Z,1.63
2024-04-22T13:55:21.279Z,1.70
2024-04-22T14:00:23.568Z,1.30
2024-04-22T14:05:25.827Z,1.60
2024-04-22T14:10:28.749Z,1.48
2024-04-22T14:15:44.353Z,1.90
2024-04-22T14:20:49.916Z,1.90
2024-04-22T14:25:53.277Z,2.22
2024-04-22T14:30:55.978Z,2.75
2024-04-22T14:35:57.940Z,2.42
2024-04-22T14:41:00.160Z,2.53
2024-04-22T14:46:03.932Z,2.38
2024-04-22T14:51:06.233Z,2.67
2024-04-22T14:56:08.352Z,2.60
2024-04-22T15:01:10.307Z,2.78
2024-04-22T15:06:12.293Z,2.25
2024-04-22T15:11:14.472Z,2.60
2024-04-22T15:16:17.483Z,2.78
2024-04-22T15:21:19.428Z,2.60
2024-04-22T15:26:21.437Z,2.70
2024-04-22T15:31:23.503Z,3.38
2024-04-22T15:36:25.524Z,2.65
2024-04-22T15:41:27.651Z,2.53
2024-04-22T15:46:31.501Z,3.10
2024-04-22T15:51:33.610Z,2.65
2024-04-22T15:56:36.358Z,2.20
2024-04-22T16:01:40.984Z,2.85
2024-04-22T16:06:43.065Z,2.97
2024-04-22T16:11:45.122Z,2.72
2024-04-22T16:16:47.188Z,2.45
2024-04-22T16:21:49.242Z,2.90
2024-04-22T16:26:53.724Z,2.88
2024-04-22T16:31:55.740Z,2.80
2024-04-22T16:36:57.624Z,2.63
2024-04-22T16:41:59.551Z,2.60
2024-04-22T16:47:01.590Z,2.80
2024-04-22T16:52:04.587Z,3.33
2024-04-22T16:57:06.517Z,2.70
2024-04-22T17:02:08.548Z,3.20
2024-04-22T17:07:10.677Z,2.63
2024-04-22T17:12:12.566Z,2.20
2024-04-22T17:17:14.469Z,2.50
2024-04-22T17:22:16.558Z,2.45
2024-04-22T17:27:21.661Z,2.65
2024-04-22T17:32:23.800Z,2.53
2024-04-22T17:37:25.681Z,2.50
2024-04-22T17:42:28.029Z,2.50
2024-04-22T17:47:30.266Z,2.80
2024-04-22T17:52:32.254Z,2.60
2024-04-22T17:57:34.067Z,2.03
2024-04-22T18:02:36.003Z,2.10
2024-04-22T18:07:37.883Z,2.22
2024-04-22T18:12:41.835Z,2.28
2024-04-22T18:17:43.904Z,2.35
2024-04-22T18:22:50.643Z,2.00
2024-04-22T18:27:53.331Z,1.98
2024-04-22T18:32:55.252Z,2.33
2024-04-22T18:37:57.411Z,2.35
2024-04-22T18:42:59.560Z,2.65
2024-04-22T18:48:01.705Z,2.20
2024-04-22T18:53:04.791Z,2.33
2024-04-22T18:58:07.898Z,2.65
2024-04-22T19:03:10.739Z,2.45
2024-04-22T19:08:13.647Z,2.38
2024-04-22T19:13:17.067Z,2.05
2024-04-22T19:18:20.471Z,2.30
2024-04-22T19:23:22.519Z,2.10
2024-04-22T19:28:26.870Z,2.50
2024-04-22T19:33:29.929Z,3.55
2024-04-22T19:38:31.998Z,2.38
2024-04-22T19:43:34.099Z,2.30
2024-04-22T19:48:36.138Z,2.40
2024-04-22T19:53:39.120Z,2.47
2024-04-22T19:58:41.113Z,2.40
2024-04-22T20:03:44.112Z,2.50
2024-04-22T20:08:48.181Z,2.72
2024-04-22T20:13:50.300Z,2.42
2024-04-22T20:18:58.075Z,2.00
2024-04-22T20:23:59.923Z,1.88
2024-04-22T20:29:01.736Z,1.70
2024-04-22T20:34:03.750Z,1.90
2024-04-22T20:39:05.894Z,1.60
2024-04-22T20:44:07.841Z,1.70
2024-04-22T20:49:09.915Z,1.80
2024-04-22T20:54:11.755Z,1.95
2024-04-22T20:59:13.624Z,2.30
2024-04-22T21:04:15.434Z,1.60
2024-04-22T21:09:17.266Z,2.72
2024-04-22T21:14:19.134Z,2.40
2024-04-22T21:19:21.152Z,2.10
2024-04-22T21:24:23.215Z,2.20
2024-04-22T21:29:25.081Z,2.17
2024-04-22T21:34:28.776Z,2.58
2024-04-22T21:39:31.103Z,2.80
2024-04-22T21:44:33.402Z,1.83
2024-04-22T21:49:35.404Z,2.05
2024-04-22T21:54:37.515Z,2.75
2024-04-22T22:00:16.794Z,1.90
2024-04-22T22:05:55.979Z,2.03
2024-04-22T22:10:58.696Z,2.60
2024-04-22T22:16:00.659Z,2.08
2024-04-22T22:21:03.021Z,2.30
2024-04-22T22:26:05.217Z,2.67
2024-04-22T22:31:07.415Z,2.35
2024-04-22T22:36:09.529Z,2.83
2024-04-22T22:41:11.370Z,2.33
2024-04-22T22:46:13.237Z,2.13
2024-04-22T22:51:15.068Z,2.22
2024-04-22T22:56:16.858Z,2.63
2024-04-22T23:01:18.713Z,2.45
2024-04-22T23:06:20.573Z,2.47
2024-04-22T23:11:22.403Z,2.15
2024-04-22T23:16:24.307Z,2.17
2024-04-22T23:21:26.139Z,2.20
2024-04-22T23:26:28.148Z,2.47
2024-04-22T23:31:30.287Z,2.67
2024-04-22T23:36:32.154Z,2.35
2024-04-22T23:41:34.009Z,2.25
2024-04-22T23:46:35.940Z,2.60
2024-04-22T23:51:37.899Z,2.33
2024-04-22T23:56:39.814Z,2.88
